Terminal Aerodrome Forecast
Issued by NWS

Home | Current Version | Previous Version | Text Only | Print | Product List | Glossary On
Versions: 1 2 3 4 5 6 7 8 9 10 11 12 13 14 15 16 17
000
FTUS43 KOAX 241128
TAFCDR
TAF
KCDR 241128Z 2412/2512 09008KT 6SM -RA SCT015 BKN050 OVC070
      TEMPO 2412/2415 5SM RA BR BKN007 OVC015
     FM241600 08008KT P6SM BKN015 OVC025
     FM241800 12010KT P6SM -SHRA VCTS BKN025CB=

USA.gov is the U.S. government's official web portal to all federal, state and local government web resources and services.